Time;durP1;ratioP1;P1;durP2;ratioP2;P2;SDS_P1;SDS_P2;PMS_P1;PMS_P2;Temp;Humidity;BMP_temperature;BMP_pressure;BME280_temperature;BME280_humidity;BME280_pressure;Samples;Min_cycle;Max_cycle;Signal;HPM_P1;HPM_P2
2021/11/15 00:00:32;;;;;;;71.87;12.03;;;;;;;;;;5071971;28;20496;-66
2021/11/15 00:02:59;;;;;;;72.83;11.50;;;;;;;;;;5072552;28;20534;-66
2021/11/15 00:05:27;;;;;;;72.20;10.37;;;;;;;;;;5071992;28;20541;-65
2021/11/15 00:07:54;;;;;;;71.10;10.60;;;;;;;;;;5072376;28;20446;-66
2021/11/15 00:10:21;;;;;;;74.07;10.60;;;;;;;;;;5065586;28;20546;-65
2021/11/15 00:12:51;;;;;;;73.77;10.60;;;;;;;;;;5052173;28;20516;-66
2021/11/15 00:15:20;;;;;;;73.17;11.03;;;;;;;;;;5052387;28;20485;-66
2021/11/15 00:17:47;;;;;;;72.53;11.20;;;;;;;;;;5051916;28;20449;-66
2021/11/15 00:20:15;;;;;;;73.57;10.20;;;;;;;;;;5051826;28;20992;-65
2021/11/15 00:22:42;;;;;;;74.97;12.10;;;;;;;;;;5051393;28;20822;-66
2021/11/15 00:25:11;;;;;;;70.77;10.23;;;;;;;;;;5051959;28;20489;-66
2021/11/15 00:27:38;;;;;;;70.40;10.07;;;;;;;;;;5051352;28;20538;-65
2021/11/15 00:30:06;;;;;;;71.63;11.30;;;;;;;;;;5051981;28;20446;-65
2021/11/15 00:32:34;;;;;;;72.67;11.20;;;;;;;;;;5051751;28;20467;-66
2021/11/15 00:35:01;;;;;;;69.27;9.80;;;;;;;;;;5051798;28;20824;-65
2021/11/15 00:37:29;;;;;;;70.70;10.43;;;;;;;;;;5051400;28;20970;-65
2021/11/15 00:39:56;;;;;;;71.30;9.70;;;;;;;;;;5051648;28;20832;-65
2021/11/15 00:42:23;;;;;;;73.50;11.30;;;;;;;;;;5053808;28;20484;-65
2021/11/15 00:44:51;;;;;;;72.40;10.57;;;;;;;;;;5071663;28;20545;-66
2021/11/15 00:47:18;;;;;;;71.47;11.37;;;;;;;;;;5071557;28;20537;-65
2021/11/15 00:49:47;;;;;;;72.47;10.90;;;;;;;;;;5071765;28;20484;-65
2021/11/15 00:52:14;;;;;;;70.43;9.70;;;;;;;;;;5071534;28;20466;-65
2021/11/15 00:54:41;;;;;;;73.97;10.50;;;;;;;;;;5071349;28;20541;-66
2021/11/15 00:57:08;;;;;;;71.27;11.07;;;;;;;;;;5071475;28;20532;-65
2021/11/15 00:59:35;;;;;;;71.73;10.70;;;;;;;;;;5071255;28;20486;-66
2021/11/15 01:02:04;;;;;;;69.90;9.60;;;;;;;;;;5071300;28;20977;-66
2021/11/15 01:04:31;;;;;;;73.53;10.57;;;;;;;;;;5071423;28;20458;-66
2021/11/15 01:07:00;;;;;;;73.73;10.30;;;;;;;;;;5071026;28;20820;-66
2021/11/15 01:09:27;;;;;;;71.23;10.60;;;;;;;;;;5071300;28;20443;-66
2021/11/15 01:11:56;;;;;;;76.80;10.10;;;;;;;;;;5071589;28;20465;-66
2021/11/15 01:14:24;;;;;;;70.37;10.07;;;;;;;;;;5069110;28;20452;-66
2021/11/15 01:16:51;;;;;;;73.77;11.00;;;;;;;;;;5070890;28;20480;-66
2021/11/15 01:19:19;;;;;;;74.60;11.17;;;;;;;;;;5071052;28;20487;-65
2021/11/15 01:21:46;;;;;;;70.27;10.33;;;;;;;;;;5071036;28;20544;-66
2021/11/15 01:24:15;;;;;;;69.23;9.60;;;;;;;;;;5071427;28;20534;-65
2021/11/15 01:26:42;;;;;;;68.90;10.53;;;;;;;;;;5070869;28;20446;-66
2021/11/15 01:29:11;;;;;;;75.07;10.57;;;;;;;;;;5071347;28;20452;-66
2021/11/15 01:31:39;;;;;;;73.77;9.97;;;;;;;;;;5071048;28;20475;-66
2021/11/15 01:34:06;;;;;;;71.27;9.87;;;;;;;;;;5074754;28;20445;-65
2021/11/15 01:36:33;;;;;;;71.30;9.50;;;;;;;;;;5074730;28;20449;-66
2021/11/15 01:39:01;;;;;;;68.57;9.67;;;;;;;;;;5075244;28;20536;-66
2021/11/15 01:41:29;;;;;;;70.07;10.83;;;;;;;;;;5075009;28;20956;-66
2021/11/15 01:43:56;;;;;;;70.77;9.30;;;;;;;;;;5075035;28;21002;-66
2021/11/15 01:46:23;;;;;;;72.23;10.07;;;;;;;;;;5072133;28;20820;-65
2021/11/15 01:48:51;;;;;;;70.83;10.70;;;;;;;;;;5074741;28;20475;-66
2021/11/15 01:51:18;;;;;;;72.67;10.07;;;;;;;;;;5074944;28;20460;-66
2021/11/15 01:53:45;;;;;;;69.27;9.40;;;;;;;;;;5074949;28;20444;-64
2021/11/15 01:56:12;;;;;;;72.53;10.97;;;;;;;;;;5074193;28;20523;-65
2021/11/15 01:58:41;;;;;;;73.27;10.83;;;;;;;;;;5074739;28;20447;-65
2021/11/15 02:01:08;;;;;;;72.75;11.32;;;;;;;;;;5074397;28;20484;-65
2021/11/15 02:03:35;;;;;;;73.87;11.00;;;;;;;;;;5074461;28;20311;-66
2021/11/15 02:06:04;;;;;;;72.33;11.40;;;;;;;;;;5074475;28;20499;-65
2021/11/15 02:08:31;;;;;;;71.57;10.80;;;;;;;;;;5074351;28;20471;-66
2021/11/15 02:10:58;;;;;;;75.10;12.87;;;;;;;;;;5074544;28;20546;-65
2021/11/15 02:13:26;;;;;;;68.67;9.63;;;;;;;;;;5074757;28;20929;-66
2021/11/15 02:15:54;;;;;;;72.10;10.87;;;;;;;;;;5073710;28;20528;-65
2021/11/15 02:18:22;;;;;;;72.23;10.97;;;;;;;;;;5072105;28;20475;-66
2021/11/15 02:20:51;;;;;;;74.57;11.87;;;;;;;;;;5074081;28;21038;-66
2021/11/15 02:23:19;;;;;;;73.37;11.50;;;;;;;;;;5074342;28;20543;-64
2021/11/15 02:25:46;;;;;;;73.37;11.53;;;;;;;;;;5073938;28;20458;-65
2021/11/15 02:28:13;;;;;;;71.07;10.57;;;;;;;;;;5074049;28;20452;-66
2021/11/15 02:30:41;;;;;;;72.13;11.07;;;;;;;;;;5073885;28;20511;-66
2021/11/15 02:33:09;;;;;;;75.10;10.93;;;;;;;;;;5073868;28;20965;-66
2021/11/15 02:35:37;;;;;;;76.47;11.97;;;;;;;;;;5073815;28;20457;-66
2021/11/15 02:38:05;;;;;;;75.43;12.60;;;;;;;;;;5074008;28;20448;-65
2021/11/15 02:40:33;;;;;;;76.53;13.20;;;;;;;;;;5073812;28;20481;-65
2021/11/15 02:43:00;;;;;;;73.60;11.13;;;;;;;;;;5073645;28;20464;-65
2021/11/15 02:45:27;;;;;;;75.93;11.60;;;;;;;;;;5072282;28;20453;-66
2021/11/15 02:47:55;;;;;;;75.27;11.73;;;;;;;;;;5071301;28;20481;-66
2021/11/15 02:50:23;;;;;;;74.27;11.67;;;;;;;;;;5071906;28;20481;-66
2021/11/15 02:52:52;;;;;;;77.87;12.53;;;;;;;;;;5073602;28;20544;-65
2021/11/15 02:55:21;;;;;;;75.70;11.67;;;;;;;;;;5073801;28;20535;-63
2021/11/15 02:57:48;;;;;;;76.67;12.90;;;;;;;;;;5073789;28;20535;-65
2021/11/15 03:00:21;;;;;;;74.30;12.27;;;;;;;;;;5074759;28;20488;-66
2021/11/15 03:02:48;;;;;;;75.20;12.80;;;;;;;;;;5074566;28;20452;-66
2021/11/15 03:05:15;;;;;;;72.47;10.50;;;;;;;;;;5074397;28;20453;-66
2021/11/15 03:07:45;;;;;;;68.37;9.50;;;;;;;;;;5074557;28;20828;-66
2021/11/15 03:10:12;;;;;;;70.00;10.07;;;;;;;;;;5074196;28;20441;-65
2021/11/15 03:12:41;;;;;;;71.60;11.73;;;;;;;;;;5074138;28;20945;-65
2021/11/15 03:15:09;;;;;;;70.97;10.23;;;;;;;;;;5074172;28;20454;-66
2021/11/15 03:17:39;;;;;;;75.43;11.77;;;;;;;;;;5073778;28;20785;-65
2021/11/15 03:20:07;;;;;;;72.20;11.30;;;;;;;;;;5074277;28;20476;-65
2021/11/15 03:22:34;;;;;;;72.33;10.83;;;;;;;;;;5063005;28;20899;-65
2021/11/15 03:25:01;;;;;;;72.10;10.80;;;;;;;;;;5054093;28;20500;-66
2021/11/15 03:27:33;;;;;;;76.77;11.50;;;;;;;;;;5053547;28;20933;-66
2021/11/15 03:30:01;;;;;;;71.27;10.20;;;;;;;;;;5053524;28;20478;-65
2021/11/15 03:32:29;;;;;;;74.27;10.03;;;;;;;;;;5054262;28;20470;-66
2021/11/15 03:34:56;;;;;;;73.13;11.10;;;;;;;;;;5053953;28;20458;-66
2021/11/15 03:37:23;;;;;;;70.93;10.20;;;;;;;;;;5054014;28;20446;-66
2021/11/15 03:39:50;;;;;;;73.77;11.00;;;;;;;;;;5053749;28;20473;-65
2021/11/15 03:42:17;;;;;;;70.97;9.13;;;;;;;;;;5053976;28;21185;-66
2021/11/15 03:44:44;;;;;;;70.60;10.17;;;;;;;;;;5053603;28;20452;-65
2021/11/15 03:47:13;;;;;;;70.37;11.10;;;;;;;;;;5053537;28;20447;-66
2021/11/15 03:49:40;;;;;;;70.60;10.20;;;;;;;;;;5054084;28;20840;-66
2021/11/15 03:52:08;;;;;;;71.78;11.40;;;;;;;;;;5053244;28;20465;-66
2021/11/15 03:54:35;;;;;;;69.67;10.50;;;;;;;;;;5052055;28;20207;-65
2021/11/15 03:57:02;;;;;;;75.30;11.40;;;;;;;;;;5053255;28;20482;-65
2021/11/15 03:59:30;;;;;;;72.37;10.50;;;;;;;;;;5053549;28;20472;-66
2021/11/15 04:01:57;;;;;;;68.50;9.07;;;;;;;;;;5053597;28;20495;-65
2021/11/15 04:04:31;;;;;;;69.20;9.43;;;;;;;;;;5052547;28;20537;-65
2021/11/15 04:06:58;;;;;;;73.57;11.33;;;;;;;;;;5052753;28;20454;-65
2021/11/15 04:09:25;;;;;;;74.43;11.17;;;;;;;;;;5052217;28;20540;-65
2021/11/15 04:11:52;;;;;;;71.20;10.25;;;;;;;;;;5051907;28;20469;-66
2021/11/15 04:14:19;;;;;;;70.47;11.17;;;;;;;;;;5052142;28;20298;-65
2021/11/15 04:16:47;;;;;;;73.60;11.00;;;;;;;;;;5051955;28;20536;-66
2021/11/15 04:19:17;;;;;;;70.33;9.63;;;;;;;;;;5052077;28;20536;-65
2021/11/15 04:21:46;;;;;;;69.90;9.40;;;;;;;;;;5052012;28;20581;-65
2021/11/15 04:24:13;;;;;;;73.60;10.50;;;;;;;;;;5051893;28;20536;-65
2021/11/15 04:26:40;;;;;;;68.50;9.87;;;;;;;;;;5054454;28;20984;-65
2021/11/15 04:29:07;;;;;;;74.10;9.85;;;;;;;;;;5071745;28;20458;-65
2021/11/15 04:31:34;;;;;;;70.37;9.50;;;;;;;;;;5072067;28;20232;-66
2021/11/15 04:34:02;;;;;;;69.90;9.40;;;;;;;;;;5071884;28;20791;-66
2021/11/15 04:36:29;;;;;;;72.40;10.73;;;;;;;;;;5071434;28;20449;-66
2021/11/15 04:38:58;;;;;;;68.67;8.27;;;;;;;;;;5071241;28;20476;-65
2021/11/15 04:41:25;;;;;;;72.70;10.30;;;;;;;;;;5071712;28;20510;-65
2021/11/15 04:43:52;;;;;;;72.63;10.97;;;;;;;;;;5071830;28;20445;-64
2021/11/15 04:46:19;;;;;;;67.57;8.87;;;;;;;;;;5071446;28;20484;-66
2021/11/15 04:48:46;;;;;;;70.83;10.90;;;;;;;;;;5071706;28;20456;-65
2021/11/15 04:51:14;;;;;;;70.10;9.60;;;;;;;;;;5071562;28;20464;-66
2021/11/15 04:53:41;;;;;;;67.97;9.30;;;;;;;;;;5071444;28;20458;-66
2021/11/15 04:56:09;;;;;;;69.77;9.20;;;;;;;;;;5071407;28;20892;-66
2021/11/15 04:58:37;;;;;;;71.40;10.10;;;;;;;;;;5068841;28;20459;-65
2021/11/15 05:01:04;;;;;;;73.27;10.17;;;;;;;;;;5071400;28;20485;-65
2021/11/15 05:03:32;;;;;;;68.90;8.83;;;;;;;;;;5071429;28;21030;-65
2021/11/15 05:05:59;;;;;;;67.60;8.37;;;;;;;;;;5070923;28;20526;-65
2021/11/15 05:08:26;;;;;;;69.00;8.90;;;;;;;;;;5071177;28;20540;-65
2021/11/15 05:10:53;;;;;;;67.87;8.73;;;;;;;;;;5071458;28;20469;-65
2021/11/15 05:13:22;;;;;;;72.37;10.10;;;;;;;;;;5071296;28;20540;-65
2021/11/15 05:15:49;;;;;;;66.27;7.93;;;;;;;;;;5071146;28;20450;-66
2021/11/15 05:18:16;;;;;;;69.87;9.63;;;;;;;;;;5071477;28;20451;-65
2021/11/15 05:20:43;;;;;;;71.70;9.18;;;;;;;;;;5071118;28;20934;-65
2021/11/15 05:23:10;;;;;;;67.67;8.60;;;;;;;;;;5071632;28;20217;-66
2021/11/15 05:25:38;;;;;;;67.37;9.20;;;;;;;;;;5071189;28;20532;-65
2021/11/15 05:28:05;;;;;;;68.70;8.40;;;;;;;;;;5071369;28;20526;-66
2021/11/15 05:30:34;;;;;;;68.07;8.47;;;;;;;;;;5062452;28;20553;-66
2021/11/15 05:33:01;;;;;;;66.10;8.03;;;;;;;;;;5050953;28;20939;-66
2021/11/15 05:35:28;;;;;;;68.90;8.87;;;;;;;;;;5050991;28;20878;-65
2021/11/15 05:37:56;;;;;;;67.83;8.23;;;;;;;;;;5051232;28;20544;-65
2021/11/15 05:40:25;;;;;;;67.20;8.33;;;;;;;;;;5051047;28;20946;-66
2021/11/15 05:42:53;;;;;;;67.43;9.47;;;;;;;;;;5051086;28;20471;-66
2021/11/15 05:45:20;;;;;;;66.28;7.30;;;;;;;;;;5050947;28;20453;-65
2021/11/15 05:47:50;;;;;;;69.13;10.40;;;;;;;;;;5050599;28;20615;-65
2021/11/15 05:50:17;;;;;;;67.07;8.83;;;;;;;;;;5051172;28;20538;-66
2021/11/15 05:52:45;;;;;;;69.63;8.87;;;;;;;;;;5051332;28;20453;-66
2021/11/15 05:55:14;;;;;;;68.63;9.50;;;;;;;;;;5050771;28;20458;-65
2021/11/15 05:57:41;;;;;;;68.13;8.23;;;;;;;;;;5050726;28;20485;-66
2021/11/15 06:00:10;;;;;;;67.83;8.90;;;;;;;;;;5050803;28;20525;-66
2021/11/15 06:02:37;;;;;;;66.17;7.83;;;;;;;;;;5049632;28;20495;-66
2021/11/15 06:05:06;;;;;;;69.20;9.33;;;;;;;;;;5051087;28;20750;-66
2021/11/15 06:07:33;;;;;;;68.03;9.10;;;;;;;;;;5050633;28;20445;-65
2021/11/15 06:10:00;;;;;;;68.33;9.13;;;;;;;;;;5050939;28;20546;-66
2021/11/15 06:12:27;;;;;;;65.07;7.20;;;;;;;;;;5050762;28;20497;-66
2021/11/15 06:14:55;;;;;;;68.80;7.90;;;;;;;;;;5050736;28;20451;-65
2021/11/15 06:17:22;;;;;;;65.83;7.27;;;;;;;;;;5050533;28;20541;-66
2021/11/15 06:19:49;;;;;;;68.73;9.03;;;;;;;;;;5052298;28;20472;-65
2021/11/15 06:22:17;;;;;;;69.80;10.10;;;;;;;;;;5054310;28;20593;-66
2021/11/15 06:24:47;;;;;;;69.90;8.53;;;;;;;;;;5054305;28;20455;-66
2021/11/15 06:27:15;;;;;;;68.07;8.53;;;;;;;;;;5053788;28;20455;-66
2021/11/15 06:29:42;;;;;;;66.73;8.43;;;;;;;;;;5054108;28;20964;-66
2021/11/15 06:32:09;;;;;;;67.47;8.53;;;;;;;;;;5054077;28;20974;-67
2021/11/15 06:34:37;;;;;;;68.20;7.67;;;;;;;;;;5053916;28;20544;-66
2021/11/15 06:37:05;;;;;;;70.15;9.63;;;;;;;;;;5053994;28;20450;-66
2021/11/15 06:39:34;;;;;;;66.93;7.90;;;;;;;;;;5054024;28;20270;-66
2021/11/15 06:42:01;;;;;;;70.67;9.50;;;;;;;;;;5053105;28;20568;-66
2021/11/15 06:44:29;;;;;;;70.13;9.20;;;;;;;;;;5053928;28;20441;-65
2021/11/15 06:46:56;;;;;;;72.30;9.13;;;;;;;;;;5053600;28;20716;-65
2021/11/15 06:49:23;;;;;;;66.23;8.93;;;;;;;;;;5053952;28;20488;-66
2021/11/15 06:51:50;;;;;;;69.07;9.20;;;;;;;;;;5054173;28;20486;-66
2021/11/15 06:54:18;;;;;;;67.73;8.80;;;;;;;;;;5053511;28;20456;-65
2021/11/15 06:56:47;;;;;;;69.67;9.13;;;;;;;;;;5053388;28;21008;-66
2021/11/15 06:59:14;;;;;;;70.33;9.20;;;;;;;;;;5053655;28;20445;-65
2021/11/15 07:05:10;;;;;;;68.27;9.07;;;;;;;;;;5053455;28;20906;-66
2021/11/15 07:07:38;;;;;;;68.63;9.40;;;;;;;;;;5051833;28;20463;-66
2021/11/15 07:10:06;;;;;;;65.50;8.30;;;;;;;;;;5053503;28;20890;-66
2021/11/15 07:12:34;;;;;;;69.50;9.47;;;;;;;;;;5053333;28;20512;-65
2021/11/15 07:15:01;;;;;;;71.90;9.93;;;;;;;;;;5053395;28;20442;-66
2021/11/15 07:17:29;;;;;;;69.10;9.80;;;;;;;;;;5053130;28;20886;-65
2021/11/15 07:19:56;;;;;;;69.90;9.00;;;;;;;;;;5053180;28;20536;-66
2021/11/15 07:22:23;;;;;;;70.70;9.13;;;;;;;;;;5053314;28;20497;-65
2021/11/15 07:24:50;;;;;;;65.17;8.20;;;;;;;;;;5053056;28;20960;-66
2021/11/15 07:27:17;;;;;;;68.77;9.80;;;;;;;;;;5053004;28;20446;-65
2021/11/15 07:29:46;;;;;;;73.90;10.80;;;;;;;;;;5052909;28;20461;-65
2021/11/15 07:32:13;;;;;;;68.73;9.83;;;;;;;;;;5052860;28;20506;-65
2021/11/15 07:34:41;;;;;;;70.27;9.50;;;;;;;;;;5052940;28;20671;-66
2021/11/15 07:37:09;;;;;;;70.27;9.77;;;;;;;;;;5052841;28;20447;-66
2021/11/15 07:39:42;;;;;;;72.37;9.63;;;;;;;;;;5053074;28;20450;-66
2021/11/15 07:42:09;;;;;;;69.70;10.73;;;;;;;;;;5052826;28;20489;-66
2021/11/15 07:44:36;;;;;;;70.07;9.73;;;;;;;;;;5052944;28;20451;-66
2021/11/15 07:47:05;;;;;;;67.73;9.60;;;;;;;;;;5052413;28;20830;-65
2021/11/15 07:49:33;;;;;;;69.25;9.20;;;;;;;;;;5052723;28;20949;-66
2021/11/15 07:52:00;;;;;;;70.57;8.77;;;;;;;;;;5052865;28;20226;-66
2021/11/15 07:54:27;;;;;;;70.43;9.67;;;;;;;;;;5052797;28;20873;-65
2021/11/15 07:56:54;;;;;;;70.13;9.23;;;;;;;;;;5052373;28;20453;-66
2021/11/15 07:59:22;;;;;;;72.20;10.83;;;;;;;;;;5052537;28;20545;-65
2021/11/15 08:01:50;;;;;;;65.60;8.10;;;;;;;;;;5052390;28;20521;-66
2021/11/15 08:04:18;;;;;;;71.90;9.70;;;;;;;;;;5052683;28;20450;-67
2021/11/15 08:06:46;;;;;;;68.75;10.57;;;;;;;;;;5052229;28;20546;-66
2021/11/15 08:09:13;;;;;;;72.47;10.10;;;;;;;;;;5052407;28;20349;-66
2021/11/15 08:11:44;;;;;;;68.20;8.50;;;;;;;;;;5052333;28;20506;-66
2021/11/15 08:14:11;;;;;;;71.83;9.30;;;;;;;;;;5052263;28;20472;-66
2021/11/15 08:16:38;;;;;;;73.85;13.05;;;;;;;;;;5052186;28;20538;-66
2021/11/15 08:19:05;;;;;;;70.13;10.27;;;;;;;;;;5052392;28;20213;-66
2021/11/15 08:21:34;;;;;;;66.60;8.80;;;;;;;;;;5052007;28;20497;-66
2021/11/15 08:24:10;;;;;;;73.50;11.00;;;;;;;;;;5052196;28;20453;-67
2021/11/15 08:26:39;;;;;;;69.70;9.95;;;;;;;;;;5051804;28;20478;-66
2021/11/15 08:29:08;;;;;;;71.87;9.60;;;;;;;;;;5051994;28;20207;-66
2021/11/15 08:31:35;;;;;;;71.70;9.80;;;;;;;;;;5051931;28;20978;-67
2021/11/15 08:37:08;;;;;;;66.97;8.47;;;;;;;;;;5051628;28;20394;-66
2021/11/15 08:39:36;;;;;;;70.90;8.83;;;;;;;;;;5051899;28;20492;-65
2021/11/15 08:42:04;;;;;;;68.10;8.30;;;;;;;;;;5050811;28;20502;-65
2021/11/15 08:44:32;;;;;;;69.20;9.47;;;;;;;;;;5051976;28;20457;-66
2021/11/15 08:47:00;;;;;;;68.50;9.00;;;;;;;;;;5051463;28;20455;-66
2021/11/15 08:49:29;;;;;;;70.07;8.87;;;;;;;;;;5051684;28;20481;-66
2021/11/15 08:51:57;;;;;;;70.90;8.87;;;;;;;;;;5051613;28;21009;-67
2021/11/15 08:54:26;;;;;;;69.50;9.10;;;;;;;;;;5051669;28;20468;-67
2021/11/15 08:56:54;;;;;;;73.87;11.17;;;;;;;;;;5051466;28;20446;-67
2021/11/15 08:59:21;;;;;;;71.83;9.70;;;;;;;;;;5051575;28;20554;-66
2021/11/15 09:01:48;;;;;;;68.57;9.20;;;;;;;;;;5051558;28;20509;-67
2021/11/15 09:04:16;;;;;;;72.60;9.73;;;;;;;;;;5051531;28;20942;-66
2021/11/15 09:06:43;;;;;;;72.17;9.60;;;;;;;;;;5051331;28;20447;-66
2021/11/15 09:09:15;;;;;;;68.70;9.37;;;;;;;;;;5051681;28;20451;-67
2021/11/15 09:11:43;;;;;;;70.30;9.40;;;;;;;;;;5051545;28;20471;-67
2021/11/15 09:14:11;;;;;;;68.00;9.13;;;;;;;;;;5051594;28;20560;-66
2021/11/15 09:16:38;;;;;;;67.60;8.83;;;;;;;;;;5051067;28;20454;-66
2021/11/15 09:19:05;;;;;;;69.77;9.00;;;;;;;;;;5051701;28;20449;-67
2021/11/15 09:21:32;;;;;;;73.33;11.00;;;;;;;;;;5051468;28;20468;-67
2021/11/15 09:23:59;;;;;;;71.40;9.57;;;;;;;;;;5051519;28;20454;-66
2021/11/15 09:26:28;;;;;;;70.80;9.17;;;;;;;;;;5050970;28;20455;-66
2021/11/15 09:28:56;;;;;;;68.47;9.37;;;;;;;;;;5051483;28;20825;-67
2021/11/15 09:31:24;;;;;;;71.60;8.40;;;;;;;;;;5051549;28;20566;-66
2021/11/15 09:33:51;;;;;;;67.57;9.10;;;;;;;;;;5051566;28;20449;-66
2021/11/15 09:36:22;;;;;;;69.30;8.17;;;;;;;;;;5051035;28;20842;-66
2021/11/15 09:38:50;;;;;;;68.20;9.10;;;;;;;;;;5051252;28;20446;-67
2021/11/15 09:41:17;;;;;;;68.87;9.40;;;;;;;;;;5051011;28;21002;-67
2021/11/15 09:43:44;;;;;;;67.80;8.53;;;;;;;;;;5051048;28;20485;-67
2021/11/15 09:46:13;;;;;;;67.10;8.90;;;;;;;;;;5051064;28;20450;-67
2021/11/15 09:48:42;;;;;;;70.60;9.40;;;;;;;;;;5051111;28;20453;-66
2021/11/15 09:51:09;;;;;;;72.93;9.97;;;;;;;;;;5051133;28;20467;-67
2021/11/15 09:53:37;;;;;;;68.97;9.53;;;;;;;;;;5052337;28;20453;-67
2021/11/15 09:56:06;;;;;;;70.20;10.10;;;;;;;;;;5054268;28;20940;-66
2021/11/15 09:58:33;;;;;;;67.47;8.20;;;;;;;;;;5058039;28;20454;-66
2021/11/15 10:01:00;;;;;;;69.83;9.10;;;;;;;;;;5054682;28;20470;-64
2021/11/15 10:03:29;;;;;;;72.97;11.50;;;;;;;;;;5054706;28;20482;-64
2021/11/15 10:05:56;;;;;;;68.10;10.13;;;;;;;;;;5054436;28;20927;-64
2021/11/15 10:08:23;;;;;;;68.60;9.37;;;;;;;;;;5054637;28;20463;-64
2021/11/15 10:10:56;;;;;;;69.87;10.30;;;;;;;;;;5054579;28;20565;-65
2021/11/15 10:13:25;;;;;;;69.27;9.27;;;;;;;;;;5054745;28;20992;-64
2021/11/15 10:15:54;;;;;;;70.97;10.33;;;;;;;;;;5070826;28;20455;-64
2021/11/15 10:18:22;;;;;;;73.03;10.10;;;;;;;;;;5074509;28;20446;-65
2021/11/15 10:20:52;;;;;;;69.77;9.80;;;;;;;;;;5074209;28;20498;-66
2021/11/15 10:23:30;;;;;;;70.20;9.90;;;;;;;;;;5074023;28;20481;-66
2021/11/15 10:26:00;;;;;;;69.50;9.80;;;;;;;;;;5073876;28;20457;-67
2021/11/15 10:28:27;;;;;;;69.10;9.63;;;;;;;;;;5074410;28;20446;-67
2021/11/15 10:30:54;;;;;;;69.23;9.90;;;;;;;;;;5074342;28;20473;-67
2021/11/15 10:33:21;;;;;;;70.10;9.60;;;;;;;;;;5074371;28;20697;-67
2021/11/15 10:35:51;;;;;;;71.07;10.80;;;;;;;;;;5073695;28;20454;-64
2021/11/15 10:38:39;;;;;;;70.20;9.50;;;;;;;;;;5074274;28;20913;-64
2021/11/15 10:41:11;;;;;;;68.43;9.90;;;;;;;;;;5073864;28;20475;-64
2021/11/15 10:43:38;;;;;;;69.17;9.70;;;;;;;;;;5074062;28;20866;-63
2021/11/15 10:46:05;;;;;;;73.93;11.47;;;;;;;;;;5067091;28;20451;-65
2021/11/15 10:48:45;;;;;;;69.47;10.50;;;;;;;;;;5053799;28;20938;-64
2021/11/15 10:51:13;;;;;;;69.77;10.60;;;;;;;;;;5053756;28;20470;-64
2021/11/15 10:53:54;;;;;;;70.13;9.50;;;;;;;;;;5053970;28;20457;-67
2021/11/15 10:56:28;;;;;;;68.23;9.93;;;;;;;;;;5053459;28;20545;-66
2021/11/15 10:58:55;;;;;;;69.30;9.40;;;;;;;;;;5053640;28;20452;-65
2021/11/15 11:01:29;;;;;;;75.87;11.00;;;;;;;;;;5053592;28;20471;-66
2021/11/15 11:04:07;;;;;;;71.20;9.80;;;;;;;;;;5053666;28;20866;-66
2021/11/15 11:06:34;;;;;;;71.70;9.30;;;;;;;;;;5052490;28;20458;-66
2021/11/15 11:09:02;;;;;;;69.53;10.47;;;;;;;;;;5051819;28;20578;-65
2021/11/15 11:11:32;;;;;;;75.70;12.13;;;;;;;;;;5053713;28;20478;-66
2021/11/15 11:14:02;;;;;;;71.30;10.53;;;;;;;;;;5053672;28;20878;-66
2021/11/15 11:16:37;;;;;;;68.63;10.43;;;;;;;;;;5052994;28;20495;-65
2021/11/15 11:19:15;;;;;;;72.30;11.57;;;;;;;;;;5053250;28;20976;-66
2021/11/15 11:27:09;;;;;;;75.30;11.93;;;;;;;;;;5053016;28;20461;-66
2021/11/15 11:29:38;;;;;;;70.77;10.73;;;;;;;;;;5053127;28;20442;-66
2021/11/15 11:32:07;;;;;;;70.30;10.90;;;;;;;;;;5052836;28;20469;-66
2021/11/15 11:34:35;;;;;;;70.80;10.97;;;;;;;;;;5053118;28;20450;-66
2021/11/15 11:37:05;;;;;;;71.60;10.90;;;;;;;;;;5052956;28;20974;-66
2021/11/15 11:39:35;;;;;;;71.40;11.20;;;;;;;;;;5058419;28;20914;-65
2021/11/15 11:42:02;;;;;;;70.37;9.50;;;;;;;;;;5072663;28;20482;-65
2021/11/15 11:44:30;;;;;;;70.50;10.30;;;;;;;;;;5072538;28;20633;-66
2021/11/15 11:46:58;;;;;;;68.27;9.13;;;;;;;;;;5072546;28;20545;-66
2021/11/15 11:49:26;;;;;;;72.67;11.60;;;;;;;;;;5072806;28;20453;-67
2021/11/15 11:51:56;;;;;;;72.93;10.73;;;;;;;;;;5072953;28;20485;-66
2021/11/15 11:54:24;;;;;;;68.57;10.37;;;;;;;;;;5072762;28;20980;-66
2021/11/15 11:57:15;;;;;;;70.73;10.03;;;;;;;;;;5072118;28;20457;-66
2021/11/15 11:59:59;;;;;;;69.60;10.70;;;;;;;;;;5057250;28;20466;-65
2021/11/15 12:02:27;;;;;;;70.20;10.20;;;;;;;;;;5072380;28;20481;-65
2021/11/15 12:04:59;;;;;;;70.87;11.47;;;;;;;;;;5072307;28;20441;-66
2021/11/15 12:07:28;;;;;;;70.43;10.53;;;;;;;;;;5071931;28;20508;-65
2021/11/15 12:09:55;;;;;;;71.00;10.90;;;;;;;;;;5071991;28;20934;-66
2021/11/15 12:12:22;;;;;;;68.70;10.17;;;;;;;;;;5054815;28;20466;-67
2021/11/15 12:14:50;;;;;;;70.67;10.47;;;;;;;;;;5052396;28;20458;-65
2021/11/15 12:17:18;;;;;;;69.20;10.47;;;;;;;;;;5051827;28;20451;-66
2021/11/15 12:20:13;;;;;;;71.10;10.50;;;;;;;;;;5051826;28;20447;-66
2021/11/15 12:22:42;;;;;;;70.10;10.90;;;;;;;;;;5051905;28;20475;-66
2021/11/15 12:25:11;;;;;;;73.13;12.07;;;;;;;;;;5050744;28;20453;-65
2021/11/15 12:27:39;;;;;;;70.03;10.77;;;;;;;;;;5051095;28;20454;-66
2021/11/15 12:30:11;;;;;;;75.20;11.13;;;;;;;;;;5052085;28;20451;-66
2021/11/15 12:32:38;;;;;;;73.60;10.70;;;;;;;;;;5051801;28;20456;-67
2021/11/15 12:35:06;;;;;;;73.30;11.50;;;;;;;;;;5051991;28;20454;-65
2021/11/15 12:37:33;;;;;;;68.57;10.90;;;;;;;;;;5051729;28;20450;-66
2021/11/15 12:40:00;;;;;;;73.27;12.10;;;;;;;;;;5051943;28;20454;-66
2021/11/15 12:42:29;;;;;;;69.90;10.20;;;;;;;;;;5050191;28;20991;-64
2021/11/15 12:45:11;;;;;;;69.47;10.30;;;;;;;;;;5031482;28;20474;-66
2021/11/15 12:47:40;;;;;;;70.47;11.17;;;;;;;;;;5031721;28;20483;-66
2021/11/15 12:50:08;;;;;;;71.57;12.00;;;;;;;;;;5031663;28;20455;-65
2021/11/15 12:52:36;;;;;;;70.13;11.10;;;;;;;;;;5031847;28;20494;-65
2021/11/15 12:55:07;;;;;;;73.60;12.40;;;;;;;;;;5031635;28;20492;-67
2021/11/15 12:57:45;;;;;;;70.80;11.33;;;;;;;;;;5031333;28;20919;-66
2021/11/15 13:00:25;;;;;;;76.23;12.27;;;;;;;;;;5031762;28;20967;-66
2021/11/15 13:02:55;;;;;;;73.90;12.93;;;;;;;;;;5031691;28;20819;-66
2021/11/15 13:05:22;;;;;;;75.83;13.10;;;;;;;;;;5031495;28;20455;-66
2021/11/15 13:07:50;;;;;;;79.00;15.23;;;;;;;;;;5031288;28;20458;-67
2021/11/15 13:10:17;;;;;;;76.10;13.37;;;;;;;;;;5031688;28;20821;-66
2021/11/15 13:12:44;;;;;;;79.60;15.10;;;;;;;;;;5031455;28;20449;-66
2021/11/15 13:15:13;;;;;;;72.20;11.70;;;;;;;;;;5039765;28;20458;-66
2021/11/15 13:17:41;;;;;;;78.10;13.83;;;;;;;;;;5071189;28;20461;-66
2021/11/15 13:20:12;;;;;;;72.83;13.50;;;;;;;;;;5071421;28;20446;-65
2021/11/15 13:22:39;;;;;;;71.70;12.00;;;;;;;;;;5071334;28;20823;-66
2021/11/15 13:25:08;;;;;;;74.30;13.17;;;;;;;;;;5071364;28;20808;-66
2021/11/15 13:27:35;;;;;;;75.13;13.20;;;;;;;;;;5071205;28;20494;-66
2021/11/15 13:30:04;;;;;;;71.77;12.60;;;;;;;;;;5074875;28;20945;-66
2021/11/15 13:32:32;;;;;;;76.77;13.37;;;;;;;;;;5075291;28;20532;-65
2021/11/15 13:35:00;;;;;;;74.30;14.60;;;;;;;;;;5075133;28;20486;-64
2021/11/15 13:37:27;;;;;;;77.57;13.17;;;;;;;;;;5074922;28;20449;-66
2021/11/15 13:39:55;;;;;;;72.17;11.80;;;;;;;;;;5075404;28;20837;-66
2021/11/15 13:42:22;;;;;;;74.70;12.63;;;;;;;;;;5075029;28;20480;-66
2021/11/15 13:44:49;;;;;;;72.60;12.87;;;;;;;;;;5075021;28;20581;-66
2021/11/15 13:47:17;;;;;;;74.57;12.13;;;;;;;;;;5072336;28;20453;-66
2021/11/15 13:49:45;;;;;;;71.80;13.03;;;;;;;;;;5074839;28;20453;-65
2021/11/15 13:52:15;;;;;;;79.80;14.83;;;;;;;;;;5074998;28;20508;-66
2021/11/15 13:54:45;;;;;;;70.83;11.97;;;;;;;;;;5074990;28;20476;-66
2021/11/15 13:57:13;;;;;;;75.03;14.03;;;;;;;;;;5074561;28;20506;-66
2021/11/15 13:59:41;;;;;;;78.57;13.57;;;;;;;;;;5074726;28;20455;-65
2021/11/15 14:02:08;;;;;;;72.07;13.07;;;;;;;;;;5074558;28;20473;-65
2021/11/15 14:04:35;;;;;;;80.43;15.63;;;;;;;;;;5074860;28;20478;-66
2021/11/15 14:07:02;;;;;;;75.30;14.27;;;;;;;;;;5074520;28;20454;-66
2021/11/15 14:18:41;;;;;;;71.10;11.50;;;;;;;;;;5074183;28;20400;-66
2021/11/15 14:21:08;;;;;;;72.23;11.47;;;;;;;;;;5053199;28;20479;-65
2021/11/15 14:23:35;;;;;;;74.77;12.67;;;;;;;;;;5054500;28;20489;-66
2021/11/15 14:26:02;;;;;;;75.87;12.20;;;;;;;;;;5054124;28;20450;-65
2021/11/15 14:28:29;;;;;;;72.33;11.97;;;;;;;;;;5054338;28;20455;-66
2021/11/15 14:30:56;;;;;;;73.00;11.60;;;;;;;;;;5054129;28;20470;-65
2021/11/15 14:33:23;;;;;;;73.23;11.53;;;;;;;;;;5054104;28;20823;-65
2021/11/15 14:35:54;;;;;;;68.47;10.90;;;;;;;;;;5054012;28;20450;-65
2021/11/15 14:38:21;;;;;;;72.00;12.23;;;;;;;;;;5054191;28;20952;-66
2021/11/15 14:40:49;;;;;;;74.60;11.73;;;;;;;;;;5052789;28;20480;-65
2021/11/15 14:43:16;;;;;;;72.10;11.00;;;;;;;;;;5053934;28;20963;-66
2021/11/15 14:45:43;;;;;;;73.50;11.73;;;;;;;;;;5053527;28;20449;-65
2021/11/15 14:48:10;;;;;;;73.43;11.73;;;;;;;;;;5054266;28;20839;-66
2021/11/15 14:50:37;;;;;;;71.70;11.53;;;;;;;;;;5056572;28;20489;-66